sensor_id;sensor_type;location;lat;lon;timestamp;pressure;altitude;pressure_sealevel;temperature;humidity
76195;BME280;64964;48.694;21.206;2023-08-17T00:01:08;98381.94;;;22.80;57.92
76195;BME280;64964;48.694;21.206;2023-08-17T00:03:34;98373.84;;;22.80;57.85
76195;BME280;64964;48.694;21.206;2023-08-17T00:05:59;98364.94;;;22.80;58.00
76195;BME280;64964;48.694;21.206;2023-08-17T00:08:24;98355.22;;;22.79;58.16
76195;BME280;64964;48.694;21.206;2023-08-17T00:10:50;98357.78;;;22.74;58.37
76195;BME280;64964;48.694;21.206;2023-08-17T00:13:15;98360.16;;;22.70;58.37
76195;BME280;64964;48.694;21.206;2023-08-17T00:15:40;98347.63;;;22.64;58.16
76195;BME280;64964;48.694;21.206;2023-08-17T00:18:06;98352.31;;;22.69;57.82
76195;BME280;64964;48.694;21.206;2023-08-17T00:20:31;98355.00;;;22.69;58.05
76195;BME280;64964;48.694;21.206;2023-08-17T00:22:57;98357.22;;;22.72;57.59
76195;BME280;64964;48.694;21.206;2023-08-17T00:25:22;98348.53;;;22.70;57.63
76195;BME280;64964;48.694;21.206;2023-08-17T00:27:48;98357.47;;;22.70;57.71
76195;BME280;64964;48.694;21.206;2023-08-17T00:30:13;98351.75;;;22.67;57.53
76195;BME280;64964;48.694;21.206;2023-08-17T00:32:38;98352.19;;;22.63;57.50
76195;BME280;64964;48.694;21.206;2023-08-17T00:35:04;98356.31;;;22.66;57.32
76195;BME280;64964;48.694;21.206;2023-08-17T00:37:30;98354.91;;;22.63;57.51
76195;BME280;64964;48.694;21.206;2023-08-17T00:39:55;98357.59;;;22.63;57.74
76195;BME280;64964;48.694;21.206;2023-08-17T00:42:21;98358.88;;;22.61;57.45
76195;BME280;64964;48.694;21.206;2023-08-17T00:44:46;98358.06;;;22.60;57.98
76195;BME280;64964;48.694;21.206;2023-08-17T00:47:11;98354.44;;;22.55;57.85
76195;BME280;64964;48.694;21.206;2023-08-17T00:49:37;98356.91;;;22.56;57.70
76195;BME280;64964;48.694;21.206;2023-08-17T00:52:03;98350.34;;;22.52;57.58
76195;BME280;64964;48.694;21.206;2023-08-17T00:54:31;98350.00;;;22.49;57.89
76195;BME280;64964;48.694;21.206;2023-08-17T00:56:56;98355.63;;;22.47;57.63
76195;BME280;64964;48.694;21.206;2023-08-17T00:59:23;98353.19;;;22.46;57.86
76195;BME280;64964;48.694;21.206;2023-08-17T01:01:48;98354.47;;;22.43;58.11
76195;BME280;64964;48.694;21.206;2023-08-17T01:04:14;98357.41;;;22.42;58.12
76195;BME280;64964;48.694;21.206;2023-08-17T01:06:40;98353.31;;;22.39;57.85
76195;BME280;64964;48.694;21.206;2023-08-17T01:09:06;98359.50;;;22.40;58.06
76195;BME280;64964;48.694;21.206;2023-08-17T01:11:39;98365.97;;;22.38;58.06
76195;BME280;64964;48.694;21.206;2023-08-17T01:14:17;98358.34;;;22.35;57.69
76195;BME280;64964;48.694;21.206;2023-08-17T01:17:10;98362.09;;;22.34;58.02
76195;BME280;64964;48.694;21.206;2023-08-17T01:19:38;98349.69;;;22.33;57.60
76195;BME280;64964;48.694;21.206;2023-08-17T01:22:05;98357.31;;;22.36;57.41
76195;BME280;64964;48.694;21.206;2023-08-17T01:24:31;98339.38;;;22.30;57.48
76195;BME280;64964;48.694;21.206;2023-08-17T01:26:56;98320.44;;;22.25;57.79
76195;BME280;64964;48.694;21.206;2023-08-17T01:29:22;98346.63;;;22.42;57.37
76195;BME280;64964;48.694;21.206;2023-08-17T01:34:19;98312.81;;;22.22;57.51
76195;BME280;64964;48.694;21.206;2023-08-17T01:36:57;98343.13;;;22.41;57.44
76195;BME280;64964;48.694;21.206;2023-08-17T01:39:27;98339.38;;;22.42;57.33
76195;BME280;64964;48.694;21.206;2023-08-17T01:41:56;98338.91;;;22.45;57.09
76195;BME280;64964;48.694;21.206;2023-08-17T01:44:23;98343.44;;;22.45;56.93
76195;BME280;64964;48.694;21.206;2023-08-17T01:46:51;98342.41;;;22.46;57.27
76195;BME280;64964;48.694;21.206;2023-08-17T01:49:16;98339.13;;;22.44;57.00
76195;BME280;64964;48.694;21.206;2023-08-17T01:51:42;98347.22;;;22.44;56.85
76195;BME280;64964;48.694;21.206;2023-08-17T01:54:07;98352.38;;;22.45;56.79
76195;BME280;64964;48.694;21.206;2023-08-17T01:56:33;98344.75;;;22.42;56.89
76195;BME280;64964;48.694;21.206;2023-08-17T01:58:58;98348.03;;;22.44;57.13
76195;BME280;64964;48.694;21.206;2023-08-17T02:01:23;98353.66;;;22.43;57.03
76195;BME280;64964;48.694;21.206;2023-08-17T02:03:49;98354.72;;;22.42;56.81
76195;BME280;64964;48.694;21.206;2023-08-17T02:06:14;98357.97;;;22.44;57.14
76195;BME280;64964;48.694;21.206;2023-08-17T02:08:41;98348.16;;;22.37;57.07
76195;BME280;64964;48.694;21.206;2023-08-17T02:11:06;98349.44;;;22.35;57.00
76195;BME280;64964;48.694;21.206;2023-08-17T02:13:31;98359.50;;;22.40;57.21
76195;BME280;64964;48.694;21.206;2023-08-17T02:15:57;98364.69;;;22.41;57.15
76195;BME280;64964;48.694;21.206;2023-08-17T02:18:22;98355.19;;;22.38;57.55
76195;BME280;64964;48.694;21.206;2023-08-17T02:20:47;98350.88;;;22.37;57.92
76195;BME280;64964;48.694;21.206;2023-08-17T02:23:13;98349.44;;;22.35;57.89
76195;BME280;64964;48.694;21.206;2023-08-17T02:25:39;98345.84;;;22.29;58.10
76195;BME280;64964;48.694;21.206;2023-08-17T02:28:04;98347.38;;;22.25;58.12
76195;BME280;64964;48.694;21.206;2023-08-17T02:30:30;98339.63;;;22.17;57.86
76195;BME280;64964;48.694;21.206;2023-08-17T02:32:55;98335.66;;;22.20;58.06
76195;BME280;64964;48.694;21.206;2023-08-17T02:35:21;98333.19;;;22.18;58.10
76195;BME280;64964;48.694;21.206;2023-08-17T02:37:46;98336.13;;;22.17;57.73
76195;BME280;64964;48.694;21.206;2023-08-17T02:40:12;98328.28;;;22.15;58.17
76195;BME280;64964;48.694;21.206;2023-08-17T02:42:37;98333.91;;;22.13;57.74
76195;BME280;64964;48.694;21.206;2023-08-17T02:45:08;98330.59;;;22.11;58.11
76195;BME280;64964;48.694;21.206;2023-08-17T02:47:33;98332.28;;;22.12;57.56
76195;BME280;64964;48.694;21.206;2023-08-17T02:49:59;98327.06;;;22.11;57.88
76195;BME280;64964;48.694;21.206;2023-08-17T02:52:24;98328.13;;;22.10;57.76
76195;BME280;64964;48.694;21.206;2023-08-17T02:54:49;98312.22;;;22.08;57.70
76195;BME280;64964;48.694;21.206;2023-08-17T02:57:15;98307.66;;;22.09;57.53
76195;BME280;64964;48.694;21.206;2023-08-17T02:59:40;98303.78;;;22.05;57.84
76195;BME280;64964;48.694;21.206;2023-08-17T03:02:06;98318.41;;;22.09;58.09
76195;BME280;64964;48.694;21.206;2023-08-17T03:04:31;98307.19;;;22.00;58.14
76195;BME280;64964;48.694;21.206;2023-08-17T03:06:57;98309.19;;;22.05;58.10
76195;BME280;64964;48.694;21.206;2023-08-17T03:09:23;98315.97;;;22.07;57.93
76195;BME280;64964;48.694;21.206;2023-08-17T03:11:48;98313.50;;;22.06;58.14
76195;BME280;64964;48.694;21.206;2023-08-17T03:14:13;98294.44;;;21.96;58.30
76195;BME280;64964;48.694;21.206;2023-08-17T03:16:39;98295.59;;;22.00;57.97
76195;BME280;64964;48.694;21.206;2023-08-17T03:19:05;98274.88;;;21.88;57.81
76195;BME280;64964;48.694;21.206;2023-08-17T03:21:33;98294.53;;;22.01;57.94
76195;BME280;64964;48.694;21.206;2023-08-17T03:23:58;98296.41;;;22.00;57.49
76195;BME280;64964;48.694;21.206;2023-08-17T03:26:24;98274.88;;;21.88;57.86
76195;BME280;64964;48.694;21.206;2023-08-17T03:28:49;98292.91;;;22.00;57.97
76195;BME280;64964;48.694;21.206;2023-08-17T03:31:14;98285.66;;;22.00;57.64
76195;BME280;64964;48.694;21.206;2023-08-17T03:33:40;98277.94;;;21.92;57.70
76195;BME280;64964;48.694;21.206;2023-08-17T03:36:06;98291.84;;;22.01;57.66
76195;BME280;64964;48.694;21.206;2023-08-17T03:38:31;98284.50;;;21.96;58.14
76195;BME280;64964;48.694;21.206;2023-08-17T03:40:56;98294.78;;;21.99;58.19
76195;BME280;64964;48.694;21.206;2023-08-17T03:43:22;98297.50;;;21.99;58.00
76195;BME280;64964;48.694;21.206;2023-08-17T03:45:47;98292.31;;;21.98;58.48
76195;BME280;64964;48.694;21.206;2023-08-17T03:48:13;98296.88;;;21.97;58.35
76195;BME280;64964;48.694;21.206;2023-08-17T03:50:38;98302.72;;;21.94;58.74
76195;BME280;64964;48.694;21.206;2023-08-17T03:53:03;98297.03;;;21.91;58.68
76195;BME280;64964;48.694;21.206;2023-08-17T03:55:29;98290.22;;;21.88;58.43
76195;BME280;64964;48.694;21.206;2023-08-17T03:57:55;98288.09;;;21.90;58.33
76195;BME280;64964;48.694;21.206;2023-08-17T04:00:21;98298.06;;;21.89;58.75
76195;BME280;64964;48.694;21.206;2023-08-17T04:02:46;98297.25;;;21.89;58.40
76195;BME280;64964;48.694;21.206;2023-08-17T04:05:12;98290.69;;;21.85;58.64
76195;BME280;64964;48.694;21.206;2023-08-17T04:07:38;98307.78;;;21.91;58.68
76195;BME280;64964;48.694;21.206;2023-08-17T04:10:07;98297.59;;;21.93;58.87
76195;BME280;64964;48.694;21.206;2023-08-17T04:12:32;98304.59;;;21.94;58.82
76195;BME280;64964;48.694;21.206;2023-08-17T04:14:58;98293.38;;;21.85;58.72
76195;BME280;64964;48.694;21.206;2023-08-17T04:17:24;98306.28;;;21.95;58.57
76195;BME280;64964;48.694;21.206;2023-08-17T04:19:50;98309.78;;;21.95;58.64
76195;BME280;64964;48.694;21.206;2023-08-17T04:22:15;98313.28;;;21.96;58.65
76195;BME280;64964;48.694;21.206;2023-08-17T04:24:40;98284.13;;;21.81;59.08
76195;BME280;64964;48.694;21.206;2023-08-17T04:27:06;98310.25;;;22.04;58.72
76195;BME280;64964;48.694;21.206;2023-08-17T04:29:31;98305.66;;;22.04;58.43
76195;BME280;64964;48.694;21.206;2023-08-17T04:31:57;98319.00;;;22.11;58.85
76195;BME280;64964;48.694;21.206;2023-08-17T04:34:23;98313.78;;;22.16;58.45
76195;BME280;64964;48.694;21.206;2023-08-17T04:36:48;98313.88;;;22.21;58.41
76195;BME280;64964;48.694;21.206;2023-08-17T04:39:13;98313.41;;;22.24;58.44
76195;BME280;64964;48.694;21.206;2023-08-17T04:41:39;98312.69;;;22.29;58.14
76195;BME280;64964;48.694;21.206;2023-08-17T04:44:04;98314.06;;;22.31;58.24
76195;BME280;64964;48.694;21.206;2023-08-17T04:46:30;98309.13;;;22.40;58.10
76195;BME280;64964;48.694;21.206;2023-08-17T04:48:55;98307.47;;;22.51;58.33
76195;BME280;64964;48.694;21.206;2023-08-17T04:51:20;98310.72;;;22.65;58.05
76195;BME280;64964;48.694;21.206;2023-08-17T04:53:46;98312.72;;;22.86;58.12
76195;BME280;64964;48.694;21.206;2023-08-17T04:56:11;98317.81;;;23.11;57.98
76195;BME280;64964;48.694;21.206;2023-08-17T04:58:36;98315.56;;;23.36;57.61
76195;BME280;64964;48.694;21.206;2023-08-17T05:01:02;98309.44;;;23.58;56.85
76195;BME280;64964;48.694;21.206;2023-08-17T05:03:27;98318.53;;;23.85;56.26
76195;BME280;64964;48.694;21.206;2023-08-17T05:05:53;98315.56;;;24.04;55.92
76195;BME280;64964;48.694;21.206;2023-08-17T05:08:18;98306.34;;;24.22;55.91
76195;BME280;64964;48.694;21.206;2023-08-17T05:10:44;98310.56;;;24.34;55.87
76195;BME280;64964;48.694;21.206;2023-08-17T05:13:09;98311.78;;;24.44;55.46
76195;BME280;64964;48.694;21.206;2023-08-17T05:15:34;98300.28;;;24.53;55.17
76195;BME280;64964;48.694;21.206;2023-08-17T05:18:00;98311.97;;;24.81;54.86
76195;BME280;64964;48.694;21.206;2023-08-17T05:20:25;98294.56;;;24.99;54.61
76195;BME280;64964;48.694;21.206;2023-08-17T05:22:50;98310.28;;;25.29;54.01
76195;BME280;64964;48.694;21.206;2023-08-17T05:25:16;98313.09;;;25.39;53.41
76195;BME280;64964;48.694;21.206;2023-08-17T05:27:41;98318.81;;;25.43;53.29
76195;BME280;64964;48.694;21.206;2023-08-17T05:30:07;98311.00;;;25.46;53.56
76195;BME280;64964;48.694;21.206;2023-08-17T05:32:32;98317.22;;;25.47;53.37
76195;BME280;64964;48.694;21.206;2023-08-17T05:34:58;98320.44;;;25.44;53.41
76195;BME280;64964;48.694;21.206;2023-08-17T05:37:23;98316.63;;;25.40;53.25
76195;BME280;64964;48.694;21.206;2023-08-17T05:39:48;98314.72;;;25.40;53.29
76195;BME280;64964;48.694;21.206;2023-08-17T05:42:14;98316.41;;;25.46;53.46
76195;BME280;64964;48.694;21.206;2023-08-17T05:44:39;98321.75;;;25.73;53.42
76195;BME280;64964;48.694;21.206;2023-08-17T05:47:04;98327.41;;;26.04;53.01
76195;BME280;64964;48.694;21.206;2023-08-17T05:49:30;98321.59;;;26.32;52.93
76195;BME280;64964;48.694;21.206;2023-08-17T05:51:56;98327.44;;;26.56;52.60
76195;BME280;64964;48.694;21.206;2023-08-17T05:54:21;98326.44;;;26.78;52.21
76195;BME280;64964;48.694;21.206;2023-08-17T05:56:46;98332.44;;;26.90;51.19
76195;BME280;64964;48.694;21.206;2023-08-17T05:59:13;98333.00;;;26.92;51.26
76195;BME280;64964;48.694;21.206;2023-08-17T06:01:40;98328.91;;;26.90;51.13
76195;BME280;64964;48.694;21.206;2023-08-17T06:04:06;98325.63;;;26.88;51.37
76195;BME280;64964;48.694;21.206;2023-08-17T06:06:31;98330.53;;;26.91;51.54
76195;BME280;64964;48.694;21.206;2023-08-17T06:08:57;98333.81;;;26.93;51.37
76195;BME280;64964;48.694;21.206;2023-08-17T06:11:22;98319.38;;;26.82;51.70
76195;BME280;64964;48.694;21.206;2023-08-17T06:13:49;98323.72;;;26.78;51.81
76195;BME280;64964;48.694;21.206;2023-08-17T06:16:14;98324.78;;;26.72;52.34
76195;BME280;64964;48.694;21.206;2023-08-17T06:18:41;98327.47;;;26.67;52.39
76195;BME280;64964;48.694;21.206;2023-08-17T06:21:07;98322.84;;;26.62;52.34
76195;BME280;64964;48.694;21.206;2023-08-17T06:23:32;98326.91;;;26.60;53.07
76195;BME280;64964;48.694;21.206;2023-08-17T06:25:58;98321.47;;;26.54;52.87
76195;BME280;64964;48.694;21.206;2023-08-17T06:28:24;98328.25;;;26.52;52.80
76195;BME280;64964;48.694;21.206;2023-08-17T06:30:56;98330.66;;;26.48;52.58
76195;BME280;64964;48.694;21.206;2023-08-17T06:33:22;98322.47;;;26.43;52.66
76195;BME280;64964;48.694;21.206;2023-08-17T06:35:49;98327.34;;;26.41;52.83
76195;BME280;64964;48.694;21.206;2023-08-17T06:38:14;98327.84;;;26.33;53.08
76195;BME280;64964;48.694;21.206;2023-08-17T06:40:39;98319.38;;;26.24;53.18
76195;BME280;64964;48.694;21.206;2023-08-17T06:43:05;98320.75;;;26.22;53.45
76195;BME280;64964;48.694;21.206;2023-08-17T06:45:34;98338.13;;;26.26;54.22
76195;BME280;64964;48.694;21.206;2023-08-17T06:47:59;98329.63;;;26.12;54.32
76195;BME280;64964;48.694;21.206;2023-08-17T06:50:25;98345.88;;;26.12;54.16
76195;BME280;64964;48.694;21.206;2023-08-17T06:52:51;98355.59;;;26.08;54.27
76195;BME280;64964;48.694;21.206;2023-08-17T06:55:17;98352.53;;;25.94;54.46
76195;BME280;64964;48.694;21.206;2023-08-17T06:57:42;98357.44;;;25.92;54.06
76195;BME280;64964;48.694;21.206;2023-08-17T07:00:08;98361.13;;;25.81;53.78
76195;BME280;64964;48.694;21.206;2023-08-17T07:02:34;98346.09;;;25.68;53.75
76195;BME280;64964;48.694;21.206;2023-08-17T07:05:00;98334.06;;;25.54;54.58
76195;BME280;64964;48.694;21.206;2023-08-17T07:07:25;98347.97;;;25.63;54.76
76195;BME280;64964;48.694;21.206;2023-08-17T07:09:51;98344.13;;;25.58;55.32
76195;BME280;64964;48.694;21.206;2023-08-17T07:12:16;98329.94;;;25.46;55.49
76195;BME280;64964;48.694;21.206;2023-08-17T07:14:41;98324.75;;;25.40;55.47
76195;BME280;64964;48.694;21.206;2023-08-17T07:17:07;98316.31;;;25.36;55.63
76195;BME280;64964;48.694;21.206;2023-08-17T07:19:32;98345.63;;;25.44;55.78
76195;BME280;64964;48.694;21.206;2023-08-17T07:21:57;98345.59;;;25.39;55.46
76195;BME280;64964;48.694;21.206;2023-08-17T07:24:23;98329.53;;;25.32;55.44
76195;BME280;64964;48.694;21.206;2023-08-17T07:26:48;98342.88;;;25.39;55.40
76195;BME280;64964;48.694;21.206;2023-08-17T07:29:13;98349.13;;;25.45;55.46
76195;BME280;64964;48.694;21.206;2023-08-17T07:31:39;98340.81;;;25.51;54.93
76195;BME280;64964;48.694;21.206;2023-08-17T07:34:05;98350.88;;;25.56;55.25
76195;BME280;64964;48.694;21.206;2023-08-17T07:36:32;98332.19;;;25.54;54.99
76195;BME280;64964;48.694;21.206;2023-08-17T07:38:58;98334.41;;;25.63;55.44
76195;BME280;64964;48.694;21.206;2023-08-17T07:41:23;98337.97;;;25.68;55.36
76195;BME280;64964;48.694;21.206;2023-08-17T07:43:48;98331.47;;;25.69;55.30
76195;BME280;64964;48.694;21.206;2023-08-17T07:46:14;98314.88;;;25.61;55.71
76195;BME280;64964;48.694;21.206;2023-08-17T07:48:39;98321.47;;;25.70;55.32
76195;BME280;64964;48.694;21.206;2023-08-17T07:51:04;98329.94;;;25.78;55.33
76195;BME280;64964;48.694;21.206;2023-08-17T07:53:30;98326.41;;;25.78;55.44
76195;BME280;64964;48.694;21.206;2023-08-17T07:55:55;98341.34;;;25.80;55.38
76195;BME280;64964;48.694;21.206;2023-08-17T07:58:20;98335.63;;;25.77;55.38
76195;BME280;64964;48.694;21.206;2023-08-17T08:00:46;98337.00;;;25.79;55.43
76195;BME280;64964;48.694;21.206;2023-08-17T08:03:11;98322.34;;;25.75;55.41
76195;BME280;64964;48.694;21.206;2023-08-17T08:05:36;98342.47;;;25.85;55.36
76195;BME280;64964;48.694;21.206;2023-08-17T08:08:02;98317.66;;;25.71;55.72
76195;BME280;64964;48.694;21.206;2023-08-17T08:10:28;98332.59;;;25.73;56.32
76195;BME280;64964;48.694;21.206;2023-08-17T08:12:53;98337.28;;;25.83;56.39
76195;BME280;64964;48.694;21.206;2023-08-17T08:15:19;98326.19;;;25.79;57.06
76195;BME280;64964;48.694;21.206;2023-08-17T08:17:44;98327.53;;;25.82;57.55
76195;BME280;64964;48.694;21.206;2023-08-17T08:20:10;98331.94;;;25.88;57.83
76195;BME280;64964;48.694;21.206;2023-08-17T08:22:35;98337.88;;;25.90;57.35
76195;BME280;64964;48.694;21.206;2023-08-17T08:25:00;98337.06;;;25.90;57.83
76195;BME280;64964;48.694;21.206;2023-08-17T08:27:26;98332.16;;;25.87;57.41
76195;BME280;64964;48.694;21.206;2023-08-17T08:29:51;98330.00;;;25.83;58.09
76195;BME280;64964;48.694;21.206;2023-08-17T08:32:17;98349.88;;;25.99;57.98
76195;BME280;64964;48.694;21.206;2023-08-17T08:34:42;98352.56;;;25.99;57.43
76195;BME280;64964;48.694;21.206;2023-08-17T08:37:07;98334.09;;;25.91;56.96
76195;BME280;64964;48.694;21.206;2023-08-17T08:39:47;98347.41;;;25.93;58.00
76195;BME280;64964;48.694;21.206;2023-08-17T08:42:14;98342.19;;;25.86;57.61
76195;BME280;64964;48.694;21.206;2023-08-17T08:44:39;98369.31;;;25.91;57.22
76195;BME280;64964;48.694;21.206;2023-08-17T08:47:04;98365.66;;;25.75;56.74
76195;BME280;64964;48.694;21.206;2023-08-17T08:49:31;98380.25;;;25.74;58.32
76195;BME280;64964;48.694;21.206;2023-08-17T08:51:58;98386.44;;;25.70;58.90
76195;BME280;64964;48.694;21.206;2023-08-17T08:54:26;98383.19;;;25.68;58.99
76195;BME280;64964;48.694;21.206;2023-08-17T08:56:56;98375.03;;;25.63;59.12
76195;BME280;64964;48.694;21.206;2023-08-17T08:59:24;98386.41;;;25.65;59.78
76195;BME280;64964;48.694;21.206;2023-08-17T09:01:52;98374.13;;;25.52;59.71
76195;BME280;64964;48.694;21.206;2023-08-17T09:04:17;98391.94;;;25.48;59.55
76195;BME280;64964;48.694;21.206;2023-08-17T09:06:43;98411.97;;;25.47;60.09
76195;BME280;64964;48.694;21.206;2023-08-17T09:09:10;98400.81;;;25.38;60.48
76195;BME280;64964;48.694;21.206;2023-08-17T09:11:36;98407.47;;;25.30;60.90
76195;BME280;64964;48.694;21.206;2023-08-17T09:14:01;98427.97;;;25.21;61.08
76195;BME280;64964;48.694;21.206;2023-08-17T09:16:27;98436.53;;;25.13;61.16
76195;BME280;64964;48.694;21.206;2023-08-17T09:18:53;98423.09;;;25.01;61.61
76195;BME280;64964;48.694;21.206;2023-08-17T09:21:25;98424.94;;;24.96;62.86
76195;BME280;64964;48.694;21.206;2023-08-17T09:23:51;98405.84;;;24.85;62.17
76195;BME280;64964;48.694;21.206;2023-08-17T09:26:19;98394.66;;;24.77;62.70
76195;BME280;64964;48.694;21.206;2023-08-17T09:28:45;98400.88;;;24.77;62.22
76195;BME280;64964;48.694;21.206;2023-08-17T09:31:11;98382.50;;;24.57;61.87
76195;BME280;64964;48.694;21.206;2023-08-17T09:33:36;98411.19;;;24.58;61.62
76195;BME280;64964;48.694;21.206;2023-08-17T09:36:02;98394.06;;;24.53;61.74
76195;BME280;64964;48.694;21.206;2023-08-17T09:38:28;98390.50;;;24.47;61.86
76195;BME280;64964;48.694;21.206;2023-08-17T09:40:54;98411.31;;;24.47;61.72
76195;BME280;64964;48.694;21.206;2023-08-17T09:43:19;98406.97;;;24.46;61.91
76195;BME280;64964;48.694;21.206;2023-08-17T09:45:48;98409.91;;;24.44;61.41
76195;BME280;64964;48.694;21.206;2023-08-17T09:48:17;98398.22;;;24.39;61.52
76195;BME280;64964;48.694;21.206;2023-08-17T09:50:44;98405.56;;;24.43;61.35
76195;BME280;64964;48.694;21.206;2023-08-17T09:53:17;98407.19;;;24.44;61.42
76195;BME280;64964;48.694;21.206;2023-08-17T09:55:44;98411.31;;;24.47;60.96
76195;BME280;64964;48.694;21.206;2023-08-17T09:58:10;98404.75;;;24.43;61.28
76195;BME280;64964;48.694;21.206;2023-08-17T10:00:45;98415.38;;;24.49;60.65
76195;BME280;64964;48.694;21.206;2023-08-17T10:03:18;98422.19;;;24.52;61.06
76195;BME280;64964;48.694;21.206;2023-08-17T10:05:48;98409.69;;;24.46;61.01
76195;BME280;64964;48.694;21.206;2023-08-17T10:08:19;98397.41;;;24.38;60.34
76195;BME280;64964;48.694;21.206;2023-08-17T10:10:46;98427.09;;;24.55;60.09
76195;BME280;64964;48.694;21.206;2023-08-17T10:13:17;98411.63;;;24.50;60.21
76195;BME280;64964;48.694;21.206;2023-08-17T10:15:57;98405.97;;;24.52;59.31
76195;BME280;64964;48.694;21.206;2023-08-17T10:18:36;98415.78;;;24.58;59.04
76195;BME280;64964;48.694;21.206;2023-08-17T10:21:07;98402.06;;;24.65;58.98
76195;BME280;64964;48.694;21.206;2023-08-17T10:23:35;98379.25;;;24.55;59.13
76195;BME280;64964;48.694;21.206;2023-08-17T10:26:02;98383.22;;;24.70;59.13
76195;BME280;64964;48.694;21.206;2023-08-17T10:28:30;98389.13;;;24.89;59.16
76195;BME280;64964;48.694;21.206;2023-08-17T10:30:56;98387.59;;;24.98;58.44
76195;BME280;64964;48.694;21.206;2023-08-17T10:33:22;98378.72;;;25.02;59.03
76195;BME280;64964;48.694;21.206;2023-08-17T10:35:48;98371.47;;;25.08;58.47
76195;BME280;64964;48.694;21.206;2023-08-17T10:38:15;98347.06;;;25.03;58.45
76195;BME280;64964;48.694;21.206;2023-08-17T10:40:41;98357.78;;;25.15;58.43
76195;BME280;64964;48.694;21.206;2023-08-17T10:43:07;98356.78;;;25.21;58.18
76195;BME280;64964;48.694;21.206;2023-08-17T10:45:34;98348.13;;;25.24;58.31
76195;BME280;64964;48.694;21.206;2023-08-17T10:48:27;98331.59;;;25.20;58.20
76195;BME280;64964;48.694;21.206;2023-08-17T10:51:04;98348.59;;;25.43;58.73
76195;BME280;64964;48.694;21.206;2023-08-17T10:53:37;98351.34;;;25.48;57.90
76195;BME280;64964;48.694;21.206;2023-08-17T10:56:08;98370.38;;;25.58;57.53
76195;BME280;64964;48.694;21.206;2023-08-17T10:58:35;98366.03;;;25.57;57.49
76195;BME280;64964;48.694;21.206;2023-08-17T11:01:01;98382.91;;;25.64;57.37
76195;BME280;64964;48.694;21.206;2023-08-17T11:03:26;98387.09;;;25.77;56.97
76195;BME280;64964;48.694;21.206;2023-08-17T11:05:54;98386.03;;;25.83;57.20
76195;BME280;64964;48.694;21.206;2023-08-17T11:08:32;98382.59;;;25.88;57.37
76195;BME280;64964;48.694;21.206;2023-08-17T11:13:26;98398.97;;;26.08;57.33
76195;BME280;64964;48.694;21.206;2023-08-17T11:15:52;98397.13;;;26.14;57.24
76195;BME280;64964;48.694;21.206;2023-08-17T11:18:18;98400.38;;;26.16;57.17
76195;BME280;64964;48.694;21.206;2023-08-17T11:20:43;98395.00;;;26.21;57.06
76195;BME280;64964;48.694;21.206;2023-08-17T11:23:09;98394.47;;;26.24;56.82
76195;BME280;64964;48.694;21.206;2023-08-17T11:25:36;98381.19;;;26.22;57.13
76195;BME280;64964;48.694;21.206;2023-08-17T11:28:02;98396.41;;;26.28;56.87
76195;BME280;64964;48.694;21.206;2023-08-17T11:30:28;98399.91;;;26.29;56.95
76195;BME280;64964;48.694;21.206;2023-08-17T11:32:55;98392.88;;;26.28;56.95
76195;BME280;64964;48.694;21.206;2023-08-17T11:35:21;98398.88;;;26.30;56.93
76195;BME280;64964;48.694;21.206;2023-08-17T11:37:47;98396.47;;;26.33;57.36
76195;BME280;64964;48.694;21.206;2023-08-17T11:40:16;98393.75;;;26.33;56.90
76195;BME280;64964;48.694;21.206;2023-08-17T11:42:42;98392.91;;;26.33;57.06
76195;BME280;64964;48.694;21.206;2023-08-17T11:45:08;98395.88;;;26.31;56.92
76195;BME280;64964;48.694;21.206;2023-08-17T11:47:40;98392.06;;;26.27;56.98
76195;BME280;64964;48.694;21.206;2023-08-17T11:50:08;98394.22;;;26.25;56.84
76195;BME280;64964;48.694;21.206;2023-08-17T11:52:33;98383.59;;;26.19;56.92
76195;BME280;64964;48.694;21.206;2023-08-17T11:54:59;98379.81;;;26.20;57.23
76195;BME280;64964;48.694;21.206;2023-08-17T11:57:25;98378.47;;;26.17;57.32
76195;BME280;64964;48.694;21.206;2023-08-17T11:59:55;98372.75;;;26.14;57.15
76195;BME280;64964;48.694;21.206;2023-08-17T12:02:24;98354.75;;;25.97;57.29
76195;BME280;64964;48.694;21.206;2023-08-17T12:04:51;98376.97;;;25.99;57.51
76195;BME280;64964;48.694;21.206;2023-08-17T12:07:17;98355.56;;;25.71;57.18
76195;BME280;64964;48.694;21.206;2023-08-17T12:09:44;98387.13;;;25.82;58.21
76195;BME280;64964;48.694;21.206;2023-08-17T12:12:10;98378.09;;;25.71;59.00
76195;BME280;64964;48.694;21.206;2023-08-17T12:14:36;98376.69;;;25.69;59.24
76195;BME280;64964;48.694;21.206;2023-08-17T12:17:01;98378.25;;;25.59;59.43
76195;BME280;64964;48.694;21.206;2023-08-17T12:19:27;98375.19;;;25.51;59.88
76195;BME280;64964;48.694;21.206;2023-08-17T12:21:52;98365.06;;;25.41;60.52
76195;BME280;64964;48.694;21.206;2023-08-17T12:24:18;98353.09;;;25.32;60.66
76195;BME280;64964;48.694;21.206;2023-08-17T12:26:45;98343.81;;;25.23;60.98
76195;BME280;64964;48.694;21.206;2023-08-17T12:29:14;98352.13;;;25.16;61.22
76195;BME280;64964;48.694;21.206;2023-08-17T12:31:39;98360.66;;;25.08;61.51
76195;BME280;64964;48.694;21.206;2023-08-17T12:34:05;98348.34;;;24.95;61.74
76195;BME280;64964;48.694;21.206;2023-08-17T12:36:34;98354.50;;;24.91;62.17
76195;BME280;64964;48.694;21.206;2023-08-17T12:39:03;98348.78;;;24.87;61.61
76195;BME280;64964;48.694;21.206;2023-08-17T12:41:29;98345.72;;;24.78;61.89
76195;BME280;64964;48.694;21.206;2023-08-17T12:43:54;98342.16;;;24.73;61.74
76195;BME280;64964;48.694;21.206;2023-08-17T12:46:23;98343.72;;;24.69;62.28
76195;BME280;64964;48.694;21.206;2023-08-17T12:48:49;98342.53;;;24.59;62.33
76195;BME280;64964;48.694;21.206;2023-08-17T12:51:14;98341.84;;;24.47;62.56